sensor_id;sensor_type;location;lat;lon;timestamp;P1;durP1;ratioP1;P2;durP2;ratioP2
28070;SDS011;15383;48.408;9.968;2022-08-25T00:00:58;8.32;;;3.78;;
28070;SDS011;15383;48.408;9.968;2022-08-25T00:03:24;6.00;;;3.85;;
28070;SDS011;15383;48.408;9.968;2022-08-25T00:05:50;9.48;;;4.05;;
28070;SDS011;15383;48.408;9.968;2022-08-25T00:08:15;4.90;;;3.25;;
28070;SDS011;15383;48.408;9.968;2022-08-25T00:10:41;4.00;;;3.20;;
28070;SDS011;15383;48.408;9.968;2022-08-25T00:13:07;5.43;;;3.38;;
28070;SDS011;15383;48.408;9.968;2022-08-25T00:15:33;7.30;;;3.47;;
28070;SDS011;15383;48.408;9.968;2022-08-25T00:17:59;4.65;;;3.47;;
28070;SDS011;15383;48.408;9.968;2022-08-25T00:20:25;8.90;;;3.83;;
28070;SDS011;15383;48.408;9.968;2022-08-25T00:22:52;4.55;;;3.08;;
28070;SDS011;15383;48.408;9.968;2022-08-25T00:25:20;4.47;;;2.60;;
28070;SDS011;15383;48.408;9.968;2022-08-25T00:27:47;4.22;;;3.25;;
28070;SDS011;15383;48.408;9.968;2022-08-25T00:30:15;4.13;;;3.30;;
28070;SDS011;15383;48.408;9.968;2022-08-25T00:32:41;5.85;;;3.15;;
28070;SDS011;15383;48.408;9.968;2022-08-25T00:35:08;6.38;;;3.30;;
28070;SDS011;15383;48.408;9.968;2022-08-25T00:37:33;5.10;;;3.38;;
28070;SDS011;15383;48.408;9.968;2022-08-25T00:40:01;7.35;;;3.83;;
28070;SDS011;15383;48.408;9.968;2022-08-25T00:42:27;4.72;;;3.47;;
28070;SDS011;15383;48.408;9.968;2022-08-25T00:44:53;6.40;;;4.10;;
28070;SDS011;15383;48.408;9.968;2022-08-25T00:47:19;10.88;;;3.97;;
28070;SDS011;15383;48.408;9.968;2022-08-25T00:49:46;6.00;;;4.15;;
28070;SDS011;15383;48.408;9.968;2022-08-25T00:52:17;5.10;;;3.55;;
28070;SDS011;15383;48.408;9.968;2022-08-25T00:54:53;8.77;;;3.65;;
28070;SDS011;15383;48.408;9.968;2022-08-25T00:57:29;4.40;;;3.33;;
28070;SDS011;15383;48.408;9.968;2022-08-25T01:00:15;4.78;;;3.08;;
28070;SDS011;15383;48.408;9.968;2022-08-25T01:02:47;6.13;;;3.72;;
28070;SDS011;15383;48.408;9.968;2022-08-25T01:05:14;5.93;;;3.50;;
28070;SDS011;15383;48.408;9.968;2022-08-25T01:07:39;4.53;;;3.53;;
28070;SDS011;15383;48.408;9.968;2022-08-25T01:10:07;6.32;;;3.90;;
28070;SDS011;15383;48.408;9.968;2022-08-25T01:12:34;9.63;;;4.20;;
28070;SDS011;15383;48.408;9.968;2022-08-25T01:15:01;8.75;;;3.92;;
28070;SDS011;15383;48.408;9.968;2022-08-25T01:17:44;6.22;;;3.85;;
28070;SDS011;15383;48.408;9.968;2022-08-25T01:20:10;8.63;;;4.00;;
28070;SDS011;15383;48.408;9.968;2022-08-25T01:22:37;6.65;;;4.18;;
28070;SDS011;15383;48.408;9.968;2022-08-25T01:25:04;7.57;;;4.07;;
28070;SDS011;15383;48.408;9.968;2022-08-25T01:27:39;12.05;;;5.00;;
28070;SDS011;15383;48.408;9.968;2022-08-25T01:30:05;9.10;;;4.28;;
28070;SDS011;15383;48.408;9.968;2022-08-25T01:32:32;8.77;;;4.40;;
28070;SDS011;15383;48.408;9.968;2022-08-25T01:34:59;8.70;;;4.70;;
28070;SDS011;15383;48.408;9.968;2022-08-25T01:37:24;10.27;;;4.35;;
28070;SDS011;15383;48.408;9.968;2022-08-25T01:39:50;5.85;;;3.72;;
28070;SDS011;15383;48.408;9.968;2022-08-25T01:44:52;5.25;;;3.80;;
28070;SDS011;15383;48.408;9.968;2022-08-25T01:47:18;6.03;;;3.72;;
28070;SDS011;15383;48.408;9.968;2022-08-25T01:49:44;7.90;;;4.10;;
28070;SDS011;15383;48.408;9.968;2022-08-25T01:52:23;9.63;;;4.38;;
28070;SDS011;15383;48.408;9.968;2022-08-25T01:54:52;5.68;;;3.75;;
28070;SDS011;15383;48.408;9.968;2022-08-25T01:57:18;5.85;;;4.30;;
28070;SDS011;15383;48.408;9.968;2022-08-25T01:59:43;5.93;;;4.20;;
28070;SDS011;15383;48.408;9.968;2022-08-25T02:02:09;12.88;;;4.88;;
28070;SDS011;15383;48.408;9.968;2022-08-25T02:04:35;10.52;;;4.53;;
28070;SDS011;15383;48.408;9.968;2022-08-25T02:07:03;6.47;;;4.43;;
28070;SDS011;15383;48.408;9.968;2022-08-25T02:09:30;11.95;;;4.95;;
28070;SDS011;15383;48.408;9.968;2022-08-25T02:11:56;7.93;;;4.45;;
28070;SDS011;15383;48.408;9.968;2022-08-25T02:14:22;9.00;;;5.22;;
28070;SDS011;15383;48.408;9.968;2022-08-25T02:16:48;10.80;;;5.40;;
28070;SDS011;15383;48.408;9.968;2022-08-25T02:19:15;9.35;;;5.30;;
28070;SDS011;15383;48.408;9.968;2022-08-25T02:21:42;12.70;;;4.80;;
28070;SDS011;15383;48.408;9.968;2022-08-25T02:24:08;8.93;;;5.85;;
28070;SDS011;15383;48.408;9.968;2022-08-25T02:26:35;7.63;;;4.43;;
28070;SDS011;15383;48.408;9.968;2022-08-25T02:29:01;8.70;;;5.18;;
28070;SDS011;15383;48.408;9.968;2022-08-25T02:31:27;7.50;;;4.60;;
28070;SDS011;15383;48.408;9.968;2022-08-25T02:33:53;12.55;;;5.07;;
28070;SDS011;15383;48.408;9.968;2022-08-25T02:36:20;12.63;;;5.97;;
28070;SDS011;15383;48.408;9.968;2022-08-25T02:38:45;10.45;;;4.97;;
28070;SDS011;15383;48.408;9.968;2022-08-25T02:41:18;7.88;;;4.80;;
28070;SDS011;15383;48.408;9.968;2022-08-25T02:43:46;8.93;;;4.93;;
28070;SDS011;15383;48.408;9.968;2022-08-25T02:46:13;10.90;;;5.35;;
28070;SDS011;15383;48.408;9.968;2022-08-25T02:48:40;10.02;;;5.68;;
28070;SDS011;15383;48.408;9.968;2022-08-25T02:51:06;11.38;;;5.60;;
28070;SDS011;15383;48.408;9.968;2022-08-25T02:53:34;8.88;;;4.85;;
28070;SDS011;15383;48.408;9.968;2022-08-25T02:58:31;10.02;;;5.10;;
28070;SDS011;15383;48.408;9.968;2022-08-25T03:00:57;9.30;;;5.00;;
28070;SDS011;15383;48.408;9.968;2022-08-25T03:03:22;11.77;;;5.65;;
28070;SDS011;15383;48.408;9.968;2022-08-25T03:05:48;11.93;;;5.57;;
28070;SDS011;15383;48.408;9.968;2022-08-25T03:08:14;9.68;;;5.13;;
28070;SDS011;15383;48.408;9.968;2022-08-25T03:10:40;8.75;;;6.32;;
28070;SDS011;15383;48.408;9.968;2022-08-25T03:13:06;12.23;;;6.13;;
28070;SDS011;15383;48.408;9.968;2022-08-25T03:15:31;9.77;;;6.25;;
28070;SDS011;15383;48.408;9.968;2022-08-25T03:17:57;15.02;;;5.78;;
28070;SDS011;15383;48.408;9.968;2022-08-25T03:20:24;10.73;;;6.60;;
28070;SDS011;15383;48.408;9.968;2022-08-25T03:22:51;8.68;;;5.78;;
28070;SDS011;15383;48.408;9.968;2022-08-25T03:25:16;15.02;;;6.22;;
28070;SDS011;15383;48.408;9.968;2022-08-25T03:28:01;14.90;;;6.60;;
28070;SDS011;15383;48.408;9.968;2022-08-25T03:30:27;11.02;;;6.45;;
28070;SDS011;15383;48.408;9.968;2022-08-25T03:32:53;9.35;;;5.75;;
28070;SDS011;15383;48.408;9.968;2022-08-25T03:35:20;9.98;;;6.25;;
28070;SDS011;15383;48.408;9.968;2022-08-25T03:37:46;17.92;;;5.88;;
28070;SDS011;15383;48.408;9.968;2022-08-25T03:40:13;9.27;;;5.70;;
28070;SDS011;15383;48.408;9.968;2022-08-25T03:42:40;13.55;;;7.10;;
28070;SDS011;15383;48.408;9.968;2022-08-25T03:45:07;9.02;;;5.45;;
28070;SDS011;15383;48.408;9.968;2022-08-25T03:47:35;8.75;;;5.60;;
28070;SDS011;15383;48.408;9.968;2022-08-25T03:50:03;11.45;;;6.68;;
28070;SDS011;15383;48.408;9.968;2022-08-25T03:52:29;10.48;;;6.82;;
28070;SDS011;15383;48.408;9.968;2022-08-25T03:54:56;9.95;;;6.22;;
28070;SDS011;15383;48.408;9.968;2022-08-25T03:57:22;8.90;;;5.88;;
28070;SDS011;15383;48.408;9.968;2022-08-25T03:59:47;10.82;;;6.15;;
28070;SDS011;15383;48.408;9.968;2022-08-25T04:02:13;11.70;;;7.05;;
28070;SDS011;15383;48.408;9.968;2022-08-25T04:04:39;11.23;;;6.28;;
28070;SDS011;15383;48.408;9.968;2022-08-25T04:07:04;9.38;;;6.45;;
28070;SDS011;15383;48.408;9.968;2022-08-25T04:09:30;11.32;;;7.05;;
28070;SDS011;15383;48.408;9.968;2022-08-25T04:11:56;10.00;;;6.30;;
28070;SDS011;15383;48.408;9.968;2022-08-25T04:14:22;11.30;;;6.38;;
28070;SDS011;15383;48.408;9.968;2022-08-25T04:16:48;10.85;;;6.35;;
28070;SDS011;15383;48.408;9.968;2022-08-25T04:19:14;14.27;;;6.55;;
28070;SDS011;15383;48.408;9.968;2022-08-25T04:21:40;12.95;;;6.68;;
28070;SDS011;15383;48.408;9.968;2022-08-25T04:24:07;13.98;;;7.40;;
28070;SDS011;15383;48.408;9.968;2022-08-25T04:26:36;15.45;;;6.82;;
28070;SDS011;15383;48.408;9.968;2022-08-25T04:31:31;12.07;;;7.15;;
28070;SDS011;15383;48.408;9.968;2022-08-25T04:33:58;10.38;;;6.28;;
28070;SDS011;15383;48.408;9.968;2022-08-25T04:36:29;9.20;;;6.30;;
28070;SDS011;15383;48.408;9.968;2022-08-25T04:38:55;13.68;;;7.40;;
28070;SDS011;15383;48.408;9.968;2022-08-25T04:41:21;11.95;;;6.72;;
28070;SDS011;15383;48.408;9.968;2022-08-25T04:43:49;12.45;;;7.30;;
28070;SDS011;15383;48.408;9.968;2022-08-25T04:48:42;15.13;;;8.35;;
28070;SDS011;15383;48.408;9.968;2022-08-25T04:51:10;12.63;;;7.38;;
28070;SDS011;15383;48.408;9.968;2022-08-25T04:53:38;16.85;;;7.65;;
28070;SDS011;15383;48.408;9.968;2022-08-25T04:56:04;11.73;;;7.20;;
28070;SDS011;15383;48.408;9.968;2022-08-25T04:58:35;11.63;;;7.18;;
28070;SDS011;15383;48.408;9.968;2022-08-25T05:01:11;11.35;;;6.13;;
28070;SDS011;15383;48.408;9.968;2022-08-25T05:03:42;11.32;;;6.78;;
28070;SDS011;15383;48.408;9.968;2022-08-25T05:06:09;17.40;;;6.88;;
28070;SDS011;15383;48.408;9.968;2022-08-25T05:08:35;14.57;;;6.93;;
28070;SDS011;15383;48.408;9.968;2022-08-25T05:11:08;15.60;;;7.80;;
28070;SDS011;15383;48.408;9.968;2022-08-25T05:13:40;14.47;;;7.57;;
28070;SDS011;15383;48.408;9.968;2022-08-25T05:16:13;12.38;;;7.25;;
28070;SDS011;15383;48.408;9.968;2022-08-25T05:18:39;12.93;;;7.82;;
28070;SDS011;15383;48.408;9.968;2022-08-25T05:21:06;15.73;;;8.25;;
28070;SDS011;15383;48.408;9.968;2022-08-25T05:23:35;16.70;;;9.23;;
28070;SDS011;15383;48.408;9.968;2022-08-25T05:26:02;12.35;;;8.15;;
28070;SDS011;15383;48.408;9.968;2022-08-25T05:28:30;21.73;;;8.38;;
28070;SDS011;15383;48.408;9.968;2022-08-25T05:31:00;15.68;;;9.45;;
28070;SDS011;15383;48.408;9.968;2022-08-25T05:33:27;17.48;;;10.23;;
28070;SDS011;15383;48.408;9.968;2022-08-25T05:35:52;13.10;;;8.13;;
28070;SDS011;15383;48.408;9.968;2022-08-25T05:38:19;14.88;;;8.20;;
28070;SDS011;15383;48.408;9.968;2022-08-25T05:40:45;13.18;;;8.30;;
28070;SDS011;15383;48.408;9.968;2022-08-25T05:46:32;18.50;;;8.80;;
28070;SDS011;15383;48.408;9.968;2022-08-25T05:48:58;17.27;;;9.05;;
28070;SDS011;15383;48.408;9.968;2022-08-25T05:51:24;15.63;;;9.25;;
28070;SDS011;15383;48.408;9.968;2022-08-25T05:53:50;14.77;;;8.60;;
28070;SDS011;15383;48.408;9.968;2022-08-25T05:56:17;17.08;;;9.93;;
28070;SDS011;15383;48.408;9.968;2022-08-25T05:58:43;15.75;;;8.15;;
28070;SDS011;15383;48.408;9.968;2022-08-25T06:01:17;21.38;;;9.63;;
28070;SDS011;15383;48.408;9.968;2022-08-25T06:04:08;19.40;;;10.70;;
28070;SDS011;15383;48.408;9.968;2022-08-25T06:06:34;20.10;;;8.32;;
28070;SDS011;15383;48.408;9.968;2022-08-25T06:09:00;19.13;;;9.55;;
28070;SDS011;15383;48.408;9.968;2022-08-25T06:11:27;14.38;;;8.38;;
28070;SDS011;15383;48.408;9.968;2022-08-25T06:13:53;16.63;;;9.30;;
28070;SDS011;15383;48.408;9.968;2022-08-25T06:16:19;15.13;;;9.07;;
28070;SDS011;15383;48.408;9.968;2022-08-25T06:18:45;15.40;;;8.15;;
28070;SDS011;15383;48.408;9.968;2022-08-25T06:21:11;20.95;;;9.68;;
28070;SDS011;15383;48.408;9.968;2022-08-25T06:23:38;16.38;;;9.02;;
28070;SDS011;15383;48.408;9.968;2022-08-25T06:26:05;18.75;;;9.13;;
28070;SDS011;15383;48.408;9.968;2022-08-25T06:28:33;15.52;;;9.13;;
28070;SDS011;15383;48.408;9.968;2022-08-25T06:30:59;16.67;;;8.73;;
28070;SDS011;15383;48.408;9.968;2022-08-25T06:33:26;23.02;;;8.88;;
28070;SDS011;15383;48.408;9.968;2022-08-25T06:35:54;13.38;;;8.35;;
28070;SDS011;15383;48.408;9.968;2022-08-25T06:38:20;17.95;;;9.02;;
28070;SDS011;15383;48.408;9.968;2022-08-25T06:40:47;13.07;;;8.98;;
28070;SDS011;15383;48.408;9.968;2022-08-25T06:43:13;13.45;;;8.55;;
28070;SDS011;15383;48.408;9.968;2022-08-25T06:45:40;15.45;;;8.90;;
28070;SDS011;15383;48.408;9.968;2022-08-25T06:48:08;16.17;;;8.60;;
28070;SDS011;15383;48.408;9.968;2022-08-25T06:50:34;10.82;;;7.55;;
28070;SDS011;15383;48.408;9.968;2022-08-25T06:53:02;14.13;;;8.07;;
28070;SDS011;15383;48.408;9.968;2022-08-25T06:55:28;12.90;;;7.75;;
28070;SDS011;15383;48.408;9.968;2022-08-25T06:57:54;13.85;;;7.93;;
28070;SDS011;15383;48.408;9.968;2022-08-25T07:00:20;13.95;;;8.40;;
28070;SDS011;15383;48.408;9.968;2022-08-25T07:02:46;13.35;;;7.88;;
28070;SDS011;15383;48.408;9.968;2022-08-25T07:05:12;14.68;;;8.07;;
28070;SDS011;15383;48.408;9.968;2022-08-25T07:07:37;13.98;;;8.80;;
28070;SDS011;15383;48.408;9.968;2022-08-25T07:10:04;15.55;;;7.85;;
28070;SDS011;15383;48.408;9.968;2022-08-25T07:12:30;17.58;;;9.00;;
28070;SDS011;15383;48.408;9.968;2022-08-25T07:14:55;14.73;;;7.97;;
28070;SDS011;15383;48.408;9.968;2022-08-25T07:17:38;17.90;;;7.65;;
28070;SDS011;15383;48.408;9.968;2022-08-25T07:20:04;15.13;;;9.32;;
28070;SDS011;15383;48.408;9.968;2022-08-25T07:22:32;13.02;;;7.80;;
28070;SDS011;15383;48.408;9.968;2022-08-25T07:24:58;14.00;;;7.78;;
28070;SDS011;15383;48.408;9.968;2022-08-25T07:27:24;17.85;;;7.85;;
28070;SDS011;15383;48.408;9.968;2022-08-25T07:29:51;12.20;;;7.05;;
28070;SDS011;15383;48.408;9.968;2022-08-25T07:32:18;15.05;;;8.45;;
28070;SDS011;15383;48.408;9.968;2022-08-25T07:34:43;12.70;;;7.95;;
28070;SDS011;15383;48.408;9.968;2022-08-25T07:37:27;14.73;;;8.77;;
28070;SDS011;15383;48.408;9.968;2022-08-25T07:39:53;13.63;;;8.55;;
28070;SDS011;15383;48.408;9.968;2022-08-25T07:42:19;12.98;;;8.10;;
28070;SDS011;15383;48.408;9.968;2022-08-25T07:44:44;14.32;;;7.00;;
28070;SDS011;15383;48.408;9.968;2022-08-25T07:47:11;16.17;;;8.50;;
28070;SDS011;15383;48.408;9.968;2022-08-25T07:49:41;9.77;;;6.50;;
28070;SDS011;15383;48.408;9.968;2022-08-25T07:52:06;14.88;;;7.85;;
28070;SDS011;15383;48.408;9.968;2022-08-25T07:54:32;17.40;;;7.93;;
28070;SDS011;15383;48.408;9.968;2022-08-25T07:56:59;11.55;;;6.18;;
28070;SDS011;15383;48.408;9.968;2022-08-25T07:59:25;12.02;;;6.70;;
28070;SDS011;15383;48.408;9.968;2022-08-25T08:01:51;12.88;;;6.40;;
28070;SDS011;15383;48.408;9.968;2022-08-25T08:04:17;12.38;;;6.95;;
28070;SDS011;15383;48.408;9.968;2022-08-25T08:06:43;12.82;;;7.38;;
28070;SDS011;15383;48.408;9.968;2022-08-25T08:09:10;10.60;;;6.28;;
28070;SDS011;15383;48.408;9.968;2022-08-25T08:11:36;10.52;;;7.35;;
28070;SDS011;15383;48.408;9.968;2022-08-25T08:14:05;10.38;;;6.53;;
28070;SDS011;15383;48.408;9.968;2022-08-25T08:16:32;13.40;;;7.25;;
28070;SDS011;15383;48.408;9.968;2022-08-25T08:18:58;9.88;;;6.85;;
28070;SDS011;15383;48.408;9.968;2022-08-25T08:21:26;14.75;;;8.07;;
28070;SDS011;15383;48.408;9.968;2022-08-25T08:23:56;14.50;;;7.45;;
28070;SDS011;15383;48.408;9.968;2022-08-25T08:26:23;12.35;;;7.05;;
28070;SDS011;15383;48.408;9.968;2022-08-25T08:28:49;10.55;;;6.15;;
28070;SDS011;15383;48.408;9.968;2022-08-25T08:31:16;14.00;;;6.60;;
28070;SDS011;15383;48.408;9.968;2022-08-25T08:33:44;16.00;;;8.35;;
28070;SDS011;15383;48.408;9.968;2022-08-25T08:36:11;13.55;;;6.50;;
28070;SDS011;15383;48.408;9.968;2022-08-25T08:38:37;13.93;;;7.50;;
28070;SDS011;15383;48.408;9.968;2022-08-25T08:47:18;13.13;;;7.40;;
28070;SDS011;15383;48.408;9.968;2022-08-25T08:49:48;9.93;;;6.13;;
28070;SDS011;15383;48.408;9.968;2022-08-25T08:55:30;11.88;;;5.85;;
28070;SDS011;15383;48.408;9.968;2022-08-25T08:58:16;8.40;;;5.28;;
28070;SDS011;15383;48.408;9.968;2022-08-25T09:00:47;12.98;;;6.95;;
28070;SDS011;15383;48.408;9.968;2022-08-25T09:06:01;11.02;;;7.53;;
28070;SDS011;15383;48.408;9.968;2022-08-25T09:08:31;10.93;;;6.55;;
28070;SDS011;15383;48.408;9.968;2022-08-25T09:11:01;9.63;;;5.38;;
28070;SDS011;15383;48.408;9.968;2022-08-25T09:16:20;10.18;;;6.78;;
28070;SDS011;15383;48.408;9.968;2022-08-25T09:27:40;11.10;;;5.70;;
28070;SDS011;15383;48.408;9.968;2022-08-25T09:30:32;10.63;;;6.37;;
28070;SDS011;15383;48.408;9.968;2022-08-25T09:33:21;15.48;;;5.97;;
28070;SDS011;15383;48.408;9.968;2022-08-25T09:35:48;8.80;;;5.82;;
28070;SDS011;15383;48.408;9.968;2022-08-25T09:38:16;8.95;;;5.28;;
28070;SDS011;15383;48.408;9.968;2022-08-25T09:40:52;11.85;;;5.00;;
28070;SDS011;15383;48.408;9.968;2022-08-25T09:43:39;7.70;;;5.15;;
28070;SDS011;15383;48.408;9.968;2022-08-25T09:49:20;9.63;;;6.05;;
28070;SDS011;15383;48.408;9.968;2022-08-25T09:51:47;10.75;;;5.47;;
28070;SDS011;15383;48.408;9.968;2022-08-25T09:56:49;8.60;;;5.20;;
28070;SDS011;15383;48.408;9.968;2022-08-25T09:59:23;7.95;;;4.97;;
28070;SDS011;15383;48.408;9.968;2022-08-25T10:01:51;10.03;;;5.30;;
28070;SDS011;15383;48.408;9.968;2022-08-25T10:04:37;8.65;;;6.10;;
28070;SDS011;15383;48.408;9.968;2022-08-25T10:07:05;8.18;;;5.70;;
28070;SDS011;15383;48.408;9.968;2022-08-25T10:12:43;6.32;;;4.30;;
28070;SDS011;15383;48.408;9.968;2022-08-25T10:17:40;11.57;;;4.93;;
28070;SDS011;15383;48.408;9.968;2022-08-25T10:20:15;10.35;;;4.68;;
28070;SDS011;15383;48.408;9.968;2022-08-25T10:22:48;9.98;;;5.10;;
28070;SDS011;15383;48.408;9.968;2022-08-25T10:25:47;10.43;;;5.53;;
28070;SDS011;15383;48.408;9.968;2022-08-25T10:28:37;10.07;;;4.97;;
28070;SDS011;15383;48.408;9.968;2022-08-25T10:31:20;8.93;;;5.28;;
28070;SDS011;15383;48.408;9.968;2022-08-25T10:37:11;8.32;;;5.25;;
28070;SDS011;15383;48.408;9.968;2022-08-25T10:43:15;14.90;;;5.03;;
28070;SDS011;15383;48.408;9.968;2022-08-25T10:46:14;7.18;;;4.60;;
28070;SDS011;15383;48.408;9.968;2022-08-25T10:49:47;14.27;;;5.03;;
28070;SDS011;15383;48.408;9.968;2022-08-25T10:52:55;10.70;;;5.38;;
28070;SDS011;15383;48.408;9.968;2022-08-25T11:04:46;9.48;;;5.10;;
28070;SDS011;15383;48.408;9.968;2022-08-25T11:07:35;7.05;;;4.97;;
28070;SDS011;15383;48.408;9.968;2022-08-25T11:10:18;7.78;;;5.32;;
28070;SDS011;15383;48.408;9.968;2022-08-25T11:12:50;10.73;;;5.03;;
28070;SDS011;15383;48.408;9.968;2022-08-25T11:18:58;13.05;;;5.38;;
28070;SDS011;15383;48.408;9.968;2022-08-25T11:24:46;10.13;;;4.70;;
28070;SDS011;15383;48.408;9.968;2022-08-25T11:27:36;8.50;;;4.68;;
28070;SDS011;15383;48.408;9.968;2022-08-25T11:30:18;6.93;;;4.60;;
28070;SDS011;15383;48.408;9.968;2022-08-25T11:32:48;7.85;;;5.38;;
28070;SDS011;15383;48.408;9.968;2022-08-25T11:35:37;6.40;;;4.68;;
28070;SDS011;15383;48.408;9.968;2022-08-25T11:54:36;9.77;;;5.38;;
28070;SDS011;15383;48.408;9.968;2022-08-25T12:19:55;13.13;;;4.47;;
28070;SDS011;15383;48.408;9.968;2022-08-25T12:25:23;5.07;;;3.90;;
28070;SDS011;15383;48.408;9.968;2022-08-25T12:30:19;4.63;;;3.70;;
28070;SDS011;15383;48.408;9.968;2022-08-25T12:35:55;6.28;;;3.42;;
28070;SDS011;15383;48.408;9.968;2022-08-25T12:41:57;8.02;;;4.03;;
28070;SDS011;15383;48.408;9.968;2022-08-25T12:47:45;8.10;;;4.07;;
28070;SDS011;15383;48.408;9.968;2022-08-25T12:55:55;6.88;;;4.07;;
28070;SDS011;15383;48.408;9.968;2022-08-25T12:58:47;7.25;;;3.65;;
28070;SDS011;15383;48.408;9.968;2022-08-25T13:01:19;5.40;;;3.97;;
28070;SDS011;15383;48.408;9.968;2022-08-25T13:07:13;5.30;;;3.28;;
28070;SDS011;15383;48.408;9.968;2022-08-25T13:10:02;7.50;;;3.72;;
28070;SDS011;15383;48.408;9.968;2022-08-25T13:12:57;5.35;;;3.47;;
28070;SDS011;15383;48.408;9.968;2022-08-25T13:18:12;8.05;;;4.03;;
28070;SDS011;15383;48.408;9.968;2022-08-25T13:20:47;6.78;;;3.20;;
28070;SDS011;15383;48.408;9.968;2022-08-25T13:23:15;7.03;;;3.80;;
28070;SDS011;15383;48.408;9.968;2022-08-25T13:25:50;5.25;;;3.83;;
28070;SDS011;15383;48.408;9.968;2022-08-25T13:28:19;6.00;;;3.03;;
28070;SDS011;15383;48.408;9.968;2022-08-25T13:30:58;4.70;;;3.20;;
28070;SDS011;15383;48.408;9.968;2022-08-25T13:33:26;8.23;;;3.53;;
28070;SDS011;15383;48.408;9.968;2022-08-25T13:35:54;5.10;;;3.22;;
28070;SDS011;15383;48.408;9.968;2022-08-25T13:38:39;5.30;;;3.30;;
28070;SDS011;15383;48.408;9.968;2022-08-25T13:41:06;4.78;;;3.50;;
28070;SDS011;15383;48.408;9.968;2022-08-25T13:43:33;4.78;;;3.20;;
28070;SDS011;15383;48.408;9.968;2022-08-25T13:46:01;4.57;;;3.80;;
28070;SDS011;15383;48.408;9.968;2022-08-25T13:48:31;3.40;;;2.90;;
28070;SDS011;15383;48.408;9.968;2022-08-25T13:51:22;5.28;;;3.53;;
28070;SDS011;15383;48.408;9.968;2022-08-25T13:54:00;4.15;;;3.03;;
28070;SDS011;15383;48.408;9.968;2022-08-25T13:56:29;5.72;;;3.58;;
28070;SDS011;15383;48.408;9.968;2022-08-25T13:58:58;7.47;;;3.33;;
28070;SDS011;15383;48.408;9.968;2022-08-25T14:01:27;5.20;;;3.03;;
28070;SDS011;15383;48.408;9.968;2022-08-25T14:03:56;5.13;;;2.78;;
28070;SDS011;15383;48.408;9.968;2022-08-25T14:06:42;6.90;;;2.88;;
28070;SDS011;15383;48.408;9.968;2022-08-25T14:09:15;5.63;;;2.92;;
28070;SDS011;15383;48.408;9.968;2022-08-25T14:11:47;4.43;;;3.17;;
28070;SDS011;15383;48.408;9.968;2022-08-25T14:16:50;5.28;;;3.03;;
28070;SDS011;15383;48.408;9.968;2022-08-25T14:19:20;7.03;;;3.30;;
28070;SDS011;15383;48.408;9.968;2022-08-25T14:21:47;5.60;;;3.17;;
28070;SDS011;15383;48.408;9.968;2022-08-25T14:24:14;7.68;;;3.50;;
28070;SDS011;15383;48.408;9.968;2022-08-25T14:26:41;4.00;;;2.95;;
28070;SDS011;15383;48.408;9.968;2022-08-25T14:29:09;4.72;;;2.83;;
28070;SDS011;15383;48.408;9.968;2022-08-25T14:31:35;4.45;;;3.00;;
28070;SDS011;15383;48.408;9.968;2022-08-25T14:34:05;4.07;;;3.30;;
28070;SDS011;15383;48.408;9.968;2022-08-25T14:36:33;3.38;;;2.60;;
28070;SDS011;15383;48.408;9.968;2022-08-25T14:39:00;3.75;;;3.10;;
28070;SDS011;15383;48.408;9.968;2022-08-25T14:41:31;5.78;;;3.60;;
28070;SDS011;15383;48.408;9.968;2022-08-25T14:43:59;3.97;;;3.13;;
28070;SDS011;15383;48.408;9.968;2022-08-25T14:46:26;5.47;;;3.13;;
28070;SDS011;15383;48.408;9.968;2022-08-25T14:48:54;5.45;;;3.38;;
28070;SDS011;15383;48.408;9.968;2022-08-25T14:51:27;9.02;;;2.80;;
28070;SDS011;15383;48.408;9.968;2022-08-25T14:53:55;4.43;;;2.30;;
28070;SDS011;15383;48.408;9.968;2022-08-25T14:56:27;10.40;;;2.70;;
28070;SDS011;15383;48.408;9.968;2022-08-25T14:58:54;4.82;;;2.72;;
28070;SDS011;15383;48.408;9.968;2022-08-25T15:01:20;4.68;;;2.92;;
28070;SDS011;15383;48.408;9.968;2022-08-25T15:03:49;3.45;;;2.92;;
28070;SDS011;15383;48.408;9.968;2022-08-25T15:08:43;8.35;;;3.03;;
28070;SDS011;15383;48.408;9.968;2022-08-25T15:11:28;3.58;;;2.90;;
28070;SDS011;15383;48.408;9.968;2022-08-25T15:13:55;6.30;;;2.80;;
28070;SDS011;15383;48.408;9.968;2022-08-25T15:16:29;5.15;;;3.58;;
28070;SDS011;15383;48.408;9.968;2022-08-25T15:18:58;3.53;;;3.00;;
28070;SDS011;15383;48.408;9.968;2022-08-25T15:21:24;7.68;;;3.45;;
28070;SDS011;15383;48.408;9.968;2022-08-25T15:23:49;4.03;;;2.80;;
28070;SDS011;15383;48.408;9.968;2022-08-25T15:26:15;12.15;;;3.13;;
28070;SDS011;15383;48.408;9.968;2022-08-25T15:28:43;3.42;;;2.92;;
28070;SDS011;15383;48.408;9.968;2022-08-25T15:31:14;2.70;;;2.30;;
28070;SDS011;15383;48.408;9.968;2022-08-25T15:33:41;3.90;;;2.80;;
28070;SDS011;15383;48.408;9.968;2022-08-25T15:36:07;7.40;;;3.15;;
28070;SDS011;15383;48.408;9.968;2022-08-25T15:38:35;7.13;;;2.78;;
28070;SDS011;15383;48.408;9.968;2022-08-25T15:41:01;5.07;;;2.97;;
28070;SDS011;15383;48.408;9.968;2022-08-25T15:43:27;11.25;;;3.00;;
28070;SDS011;15383;48.408;9.968;2022-08-25T15:45:53;3.50;;;2.67;;
28070;SDS011;15383;48.408;9.968;2022-08-25T15:48:19;3.50;;;2.70;;
28070;SDS011;15383;48.408;9.968;2022-08-25T15:50:44;3.35;;;3.05;;
28070;SDS011;15383;48.408;9.968;2022-08-25T15:53:11;3.72;;;2.67;;
28070;SDS011;15383;48.408;9.968;2022-08-25T15:55:37;3.85;;;2.75;;
28070;SDS011;15383;48.408;9.968;2022-08-25T15:58:04;4.20;;;3.00;;
28070;SDS011;15383;48.408;9.968;2022-08-25T16:00:30;4.50;;;3.22;;
28070;SDS011;15383;48.408;9.968;2022-08-25T16:02:55;4.47;;;3.10;;
28070;SDS011;15383;48.408;9.968;2022-08-25T16:05:21;3.70;;;2.85;;
28070;SDS011;15383;48.408;9.968;2022-08-25T16:07:47;3.63;;;2.70;;
28070;SDS011;15383;48.408;9.968;2022-08-25T16:10:13;4.85;;;2.60;;
28070;SDS011;15383;48.408;9.968;2022-08-25T16:12:38;4.20;;;2.90;;
28070;SDS011;15383;48.408;9.968;2022-08-25T16:15:04;7.85;;;3.08;;
28070;SDS011;15383;48.408;9.968;2022-08-25T16:17:30;4.50;;;3.15;;
28070;SDS011;15383;48.408;9.968;2022-08-25T16:19:56;5.60;;;2.95;;
28070;SDS011;15383;48.408;9.968;2022-08-25T16:22:22;3.72;;;3.03;;
28070;SDS011;15383;48.408;9.968;2022-08-25T16:24:48;8.55;;;3.47;;
28070;SDS011;15383;48.408;9.968;2022-08-25T16:27:13;3.15;;;2.85;;
28070;SDS011;15383;48.408;9.968;2022-08-25T16:29:40;3.60;;;3.00;;
28070;SDS011;15383;48.408;9.968;2022-08-25T16:32:08;4.40;;;2.60;;
28070;SDS011;15383;48.408;9.968;2022-08-25T16:34:35;4.03;;;2.83;;
28070;SDS011;15383;48.408;9.968;2022-08-25T16:37:01;5.63;;;4.28;;
28070;SDS011;15383;48.408;9.968;2022-08-25T16:39:27;5.60;;;3.75;;
28070;SDS011;15383;48.408;9.968;2022-08-25T16:41:52;5.63;;;3.40;;
28070;SDS011;15383;48.408;9.968;2022-08-25T16:44:19;7.90;;;3.55;;
28070;SDS011;15383;48.408;9.968;2022-08-25T16:46:45;8.50;;;4.47;;
28070;SDS011;15383;48.408;9.968;2022-08-25T16:49:12;6.85;;;2.67;;
28070;SDS011;15383;48.408;9.968;2022-08-25T16:51:39;4.28;;;3.08;;
28070;SDS011;15383;48.408;9.968;2022-08-25T16:54:06;6.93;;;3.45;;
28070;SDS011;15383;48.408;9.968;2022-08-25T16:56:53;7.78;;;5.22;;
28070;SDS011;15383;48.408;9.968;2022-08-25T16:59:19;10.65;;;4.25;;
28070;SDS011;15383;48.408;9.968;2022-08-25T17:01:45;6.75;;;3.15;;
28070;SDS011;15383;48.408;9.968;2022-08-25T17:04:10;10.38;;;3.65;;
28070;SDS011;15383;48.408;9.968;2022-08-25T17:06:38;4.53;;;3.55;;
28070;SDS011;15383;48.408;9.968;2022-08-25T17:09:05;6.13;;;2.97;;
28070;SDS011;15383;48.408;9.968;2022-08-25T17:11:34;6.35;;;3.17;;
28070;SDS011;15383;48.408;9.968;2022-08-25T17:14:06;6.03;;;2.67;;
28070;SDS011;15383;48.408;9.968;2022-08-25T17:16:33;5.72;;;2.95;;